CG George Cobb — NTVY — position and weather

sailwx.info

Track history (hours):
 
Tides and Currents Weather Stations Pressure Air Temp Water Temp Dewpoint Dewpoint Depression Visibility Wind Speed Wind Dir Waves Ship Positions

CG George Cobb

Last reported at 2017-Nov-16 20:57 UTC. Time now 2017-Nov-21 10:26 UTC.
Position N 33°43' W 118°15'.

Length 53 m; draft 2.7 m.

Type: Military. MMSI: 338921000.

Date/timePositionNaut miles runAvg speedWind from/ knotsBaromVisibWave heightAir tempDewpointWater temp
2017-Nov-16 20:57N 33°43' W 118°15'4 1.1
2017-Nov-16 17:52N 33°39' W 118°14'5 0.2
2017-Nov-15 23:06N 33°43' W 118°16'0 0.9
2017-Nov-15 22:58N 33°43' W 118°16'2 4.0
2017-Nov-15 22:30N 33°42' W 118°17'1 0.0
2017-Nov-14 20:32N 33°41' W 118°17'0 8.4
2017-Nov-14 20:30N 33°41' W 118°17'611.0
2017-Nov-14 20:00N 33°43' W 118°24'4 8.7
2017-Nov-14 19:30N 33°46' W 118°27'1 1.2
2017-Nov-14 19:00N 33°46' W 118°27'0 0.0
2017-Nov-14 18:27N 33°46' W 118°27'1 1.1
2017-Nov-14 17:59N 33°47' W 118°27'  
Track history (hours):
 
Tides and Currents Weather Stations Pressure Air Temp Water Temp Dewpoint Dewpoint Depression Visibility Wind Speed Wind Dir Waves Ship Positions

CG George Cobb

Last reported at 2017-Nov-16 20:57 UTC. Time now 2017-Nov-21 10:26 UTC.
Position N 33°43' W 118°15'.

Length 53 m; draft 2.7 m.

Type: Military. MMSI: 338921000.

Date/timePositionNaut miles runAvg speedWind from/ knotsBaromVisibWave heightAir tempDewpointWater temp
2017-Nov-16 20:57N 33°43' W 118°15'4 1.1
2017-Nov-16 17:52N 33°39' W 118°14'5 0.2
2017-Nov-15 23:06N 33°43' W 118°16'0 0.9
2017-Nov-15 22:58N 33°43' W 118°16'2 4.0
2017-Nov-15 22:30N 33°42' W 118°17'1 0.0
2017-Nov-14 20:32N 33°41' W 118°17'0 8.4
2017-Nov-14 20:30N 33°41' W 118°17'611.0
2017-Nov-14 20:00N 33°43' W 118°24'4 8.7
2017-Nov-14 19:30N 33°46' W 118°27'1 1.2
2017-Nov-14 19:00N 33°46' W 118°27'0 0.0
2017-Nov-14 18:27N 33°46' W 118°27'1 1.1
2017-Nov-14 17:59N 33°47' W 118°27'  

Dump ship's entire track history